createdAt,value
2023-03-22T00:01:47.058Z,100293.97
2023-03-22T00:04:16.483Z,100286.84
2023-03-22T00:06:45.890Z,100294.78
2023-03-22T00:09:12.480Z,100290.72
2023-03-22T00:11:39.015Z,100297.22
2023-03-22T00:14:06.193Z,100295.09
2023-03-22T00:16:33.317Z,100290.06
2023-03-22T00:18:59.955Z,100289.09
2023-03-22T00:21:29.118Z,100294.78
2023-03-22T00:23:55.825Z,100294.78
2023-03-22T00:26:22.471Z,100288.31
2023-03-22T00:28:48.988Z,100292.03
2023-03-22T00:31:15.643Z,100286.84
2023-03-22T00:33:42.618Z,100282.00
2023-03-22T00:36:10.859Z,100277.47
2023-03-22T00:38:42.906Z,100280.19
2023-03-22T00:41:11.441Z,100279.06
2023-03-22T00:43:38.084Z,100268.06
2023-03-22T00:46:05.329Z,100265.81
2023-03-22T00:48:31.962Z,100268.06
2023-03-22T00:50:58.503Z,100266.47
2023-03-22T00:53:26.069Z,100256.59
2023-03-22T00:55:52.613Z,100255.13
2023-03-22T00:58:19.483Z,100252.69
2023-03-22T01:00:46.200Z,100249.47
2023-03-22T01:03:14.147Z,100235.66
2023-03-22T01:05:42.042Z,100245.28
2023-03-22T01:08:08.706Z,100237.03
2023-03-22T01:10:36.875Z,100242.53
2023-03-22T01:13:04.131Z,100255.13
2023-03-22T01:15:30.764Z,100242.53
2023-03-22T01:17:57.536Z,100236.19
2023-03-22T01:20:24.201Z,100231.53
2023-03-22T01:22:51.336Z,100213.03
2023-03-22T01:25:18.159Z,100229.25
2023-03-22T01:27:44.793Z,100225.78
2023-03-22T01:30:14.367Z,100221.28
2023-03-22T01:32:40.972Z,100231.28
2023-03-22T01:35:08.686Z,100216.28
2023-03-22T01:37:36.375Z,100227.75
2023-03-22T01:40:04.174Z,100226.47
2023-03-22T01:42:31.026Z,100205.75
2023-03-22T01:45:32.549Z,100216.75
2023-03-22T01:48:05.166Z,100219.50
2023-03-22T01:50:37.521Z,100212.38
2023-03-22T01:53:06.630Z,100216.28
2023-03-22T01:55:34.991Z,100213.03
2023-03-22T01:58:08.951Z,100208.16
2023-03-22T02:00:44.951Z,100210.91
2023-03-22T02:03:32.452Z,100203.47
2023-03-22T02:05:59.086Z,100207.53
2023-03-22T02:08:26.439Z,100198.94
2023-03-22T02:10:57.911Z,100203.31
2023-03-22T02:13:42.304Z,100200.09
2023-03-22T02:16:50.849Z,100204.44
2023-03-22T02:19:24.260Z,100203.63
2023-03-22T02:22:21.803Z,100203.31
2023-03-22T02:25:27.518Z,100213.03
2023-03-22T02:28:08.215Z,100181.94
2023-03-22T02:30:59.103Z,100209.78
2023-03-22T02:33:48.167Z,100205.59
2023-03-22T02:36:30.803Z,100210.59
2023-03-22T02:39:06.626Z,100213.34
2023-03-22T02:41:39.005Z,100211.09
2023-03-22T02:44:14.537Z,100209.44
2023-03-22T02:46:47.985Z,100209.44
2023-03-22T02:49:16.586Z,100200.25
2023-03-22T02:51:46.598Z,100198.13
2023-03-22T02:54:18.493Z,100194.59
2023-03-22T02:56:59.787Z,100194.91
2023-03-22T02:59:26.530Z,100185.34
2023-03-22T03:01:55.296Z,100186.47
2023-03-22T03:04:40.212Z,100186.97
2023-03-22T03:07:09.308Z,100188.09
2023-03-22T03:09:37.289Z,100158.34
2023-03-22T03:12:08.874Z,100189.72
2023-03-22T03:14:35.479Z,100183.09
2023-03-22T03:17:13.677Z,100183.91
2023-03-22T03:19:57.186Z,100180.97
2023-03-22T03:22:35.670Z,100185.84
2023-03-22T03:25:06.736Z,100180.34
2023-03-22T03:27:39.544Z,100172.25
2023-03-22T03:30:14.035Z,100173.38
2023-03-22T03:32:53.592Z,100184.69
2023-03-22T03:35:26.761Z,100159.81
2023-03-22T03:38:01.432Z,100175.97
2023-03-22T03:40:32.384Z,100170.63
2023-03-22T03:43:01.226Z,100169.03
2023-03-22T03:45:27.942Z,100169.03
2023-03-22T03:48:01.359Z,100177.09
2023-03-22T03:50:27.936Z,100183.25
2023-03-22T03:52:55.779Z,100184.88
2023-03-22T03:55:22.768Z,100185.69
2023-03-22T03:57:49.369Z,100180.00
2023-03-22T04:00:16.868Z,100187.13
2023-03-22T04:03:04.078Z,100169.31
2023-03-22T04:05:43.900Z,100187.13
2023-03-22T04:08:10.618Z,100182.75
2023-03-22T04:10:38.060Z,100177.75
2023-03-22T04:13:04.968Z,100183.25
2023-03-22T04:15:32.720Z,100183.72
2023-03-22T04:18:03.701Z,100179.38
2023-03-22T04:20:31.572Z,100177.09
2023-03-22T04:22:58.664Z,100173.88
2023-03-22T04:25:30.419Z,100162.06
2023-03-22T04:28:07.429Z,100165.63
2023-03-22T04:30:36.305Z,100165.13
2023-03-22T04:33:22.835Z,100149.09
2023-03-22T04:36:10.838Z,100154.78
2023-03-22T04:38:51.595Z,100155.59
2023-03-22T04:41:21.859Z,100160.44
2023-03-22T04:43:51.645Z,100148.97
2023-03-22T04:46:21.265Z,100150.28
2023-03-22T04:48:54.262Z,100159.78
2023-03-22T04:51:21.455Z,100151.06
2023-03-22T04:54:12.850Z,100140.38
2023-03-22T04:56:41.645Z,100151.25
2023-03-22T04:59:08.336Z,100155.09
2023-03-22T05:01:35.865Z,100151.38
2023-03-22T05:04:10.814Z,100155.94
2023-03-22T05:06:37.562Z,100154.78
2023-03-22T05:09:11.261Z,100151.25
2023-03-22T05:11:38.172Z,100149.59
2023-03-22T05:14:18.777Z,100151.88
2023-03-22T05:16:48.478Z,100162.88
2023-03-22T05:19:15.481Z,100156.75
2023-03-22T05:21:46.747Z,100163.34
2023-03-22T05:24:13.386Z,100163.84
2023-03-22T05:26:42.445Z,100163.03
2023-03-22T05:29:10.972Z,100165.16
2023-03-22T05:31:57.549Z,100171.78
2023-03-22T05:34:24.233Z,100168.38
2023-03-22T05:36:51.547Z,100165.00
2023-03-22T05:39:26.970Z,100168.06
2023-03-22T05:41:54.198Z,100160.78
2023-03-22T05:44:20.987Z,100160.59
2023-03-22T05:47:06.940Z,100160.47
2023-03-22T05:49:50.509Z,100165.47
2023-03-22T05:52:17.820Z,100166.47
2023-03-22T05:54:56.737Z,100143.31
2023-03-22T05:57:23.317Z,100172.25
2023-03-22T05:59:49.990Z,100170.97
2023-03-22T06:02:24.258Z,100165.16
2023-03-22T06:04:52.086Z,100175.81
2023-03-22T06:07:18.732Z,100179.22
2023-03-22T06:09:50.448Z,100161.44
2023-03-22T06:12:24.566Z,100170.19
2023-03-22T06:14:58.854Z,100170.66
2023-03-22T06:17:40.708Z,100179.72
2023-03-22T06:20:12.246Z,100173.06
2023-03-22T06:22:42.777Z,100178.09
2023-03-22T06:25:10.142Z,100177.97
2023-03-22T06:27:42.264Z,100183.97
2023-03-22T06:30:09.526Z,100187.69
2023-03-22T06:32:50.223Z,100182.47
2023-03-22T06:35:16.937Z,100184.56
2023-03-22T06:37:45.669Z,100184.44
2023-03-22T06:40:13.052Z,100179.28
2023-03-22T06:42:39.797Z,100183.13
2023-03-22T06:45:14.578Z,100177.97
2023-03-22T06:47:44.677Z,100184.59
2023-03-22T06:50:28.257Z,100178.94
2023-03-22T06:53:05.751Z,100177.81
2023-03-22T06:55:34.621Z,100183.00
2023-03-22T06:58:10.429Z,100180.72
2023-03-22T07:00:38.687Z,100186.84
2023-03-22T07:03:07.100Z,100190.75
2023-03-22T07:06:00.838Z,100201.59
2023-03-22T07:08:30.688Z,100191.72
2023-03-22T07:10:57.906Z,100196.56
2023-03-22T07:13:24.714Z,100192.72
2023-03-22T07:15:56.788Z,100184.59
2023-03-22T07:18:33.600Z,100186.22
2023-03-22T07:21:00.284Z,100194.63
2023-03-22T07:23:27.096Z,100193.50
2023-03-22T07:26:00.675Z,100185.09
2023-03-22T07:28:31.240Z,100186.06
2023-03-22T07:31:07.240Z,100172.81
2023-03-22T07:33:44.841Z,100194.31
2023-03-22T07:36:11.738Z,100192.22
2023-03-22T07:38:38.481Z,100193.34
2023-03-22T07:41:09.284Z,100164.06
2023-03-22T07:43:56.874Z,100189.94
2023-03-22T07:46:29.738Z,100191.41
2023-03-22T07:49:17.211Z,100166.78
2023-03-22T07:52:22.308Z,100194.81
2023-03-22T07:54:48.986Z,100189.16
2023-03-22T07:57:16.433Z,100187.19
2023-03-22T07:59:48.163Z,100181.53
2023-03-22T08:02:16.074Z,100182.50
2023-03-22T08:04:52.227Z,100168.59
2023-03-22T08:07:38.583Z,100187.66
2023-03-22T08:10:05.659Z,100173.59
2023-03-22T08:12:33.995Z,100168.59
2023-03-22T08:15:10.642Z,100174.91
2023-03-22T08:17:37.457Z,100185.56
2023-03-22T08:20:12.948Z,100173.59
2023-03-22T08:22:46.464Z,100182.50
2023-03-22T08:25:39.035Z,100188.66
2023-03-22T08:28:09.879Z,100193.16
2023-03-22T08:30:37.285Z,100178.94
2023-03-22T08:33:04.386Z,100182.81
2023-03-22T08:35:32.424Z,100176.19
2023-03-22T08:37:59.106Z,100177.66
2023-03-22T08:40:34.580Z,100182.66
2023-03-22T08:43:02.481Z,100171.66
2023-03-22T08:45:29.975Z,100178.47
2023-03-22T08:48:07.776Z,100171.81
2023-03-22T08:50:51.062Z,100173.47
2023-03-22T08:53:28.477Z,100177.81
2023-03-22T08:56:10.554Z,100167.13
2023-03-22T08:58:47.767Z,100178.13
2023-03-22T09:01:44.556Z,100169.38
2023-03-22T09:04:12.027Z,100164.72
2023-03-22T09:06:42.850Z,100163.41
2023-03-22T09:09:11.455Z,100158.22
2023-03-22T09:11:40.365Z,100160.03
2023-03-22T09:14:09.528Z,100142.06
2023-03-22T09:16:36.323Z,100135.09
2023-03-22T09:19:06.584Z,100144.16
2023-03-22T09:21:34.156Z,100141.41
2023-03-22T09:24:09.109Z,100134.63
2023-03-22T09:26:41.672Z,100147.53
2023-03-22T09:29:08.277Z,100132.84
2023-03-22T09:31:35.350Z,100130.22
2023-03-22T09:34:15.068Z,100121.53
2023-03-22T09:36:42.419Z,100142.19
2023-03-22T09:39:10.268Z,100134.78
2023-03-22T09:41:52.861Z,100119.56
2023-03-22T09:44:37.984Z,100122.63
2023-03-22T09:47:10.700Z,100114.22
2023-03-22T09:49:52.649Z,100119.56
2023-03-22T09:52:20.401Z,100105.50
2023-03-22T09:54:47.040Z,100130.56
2023-03-22T09:57:26.274Z,100127.81
2023-03-22T10:00:20.828Z,100116.34
2023-03-22T10:02:51.173Z,100106.63
2023-03-22T10:05:28.823Z,100119.09
2023-03-22T10:08:18.567Z,100095.63
2023-03-22T10:10:45.233Z,100093.97
2023-03-22T10:13:36.140Z,100104.66
2023-03-22T10:16:04.113Z,100105.00
2023-03-22T10:18:37.436Z,100095.28
2023-03-22T10:21:08.811Z,100113.41
2023-03-22T10:23:49.138Z,100107.41
2023-03-22T10:26:37.037Z,100102.09
2023-03-22T10:29:39.676Z,100093.03
2023-03-22T10:32:29.749Z,100092.38
2023-03-22T10:34:56.397Z,100072.78
2023-03-22T10:37:24.887Z,100092.88
2023-03-22T10:39:53.733Z,100078.94
2023-03-22T10:42:25.193Z,100083.81
2023-03-22T10:44:57.332Z,100080.94
2023-03-22T10:47:31.413Z,100075.25
2023-03-22T10:49:58.286Z,100078.16
2023-03-22T10:52:51.671Z,100076.03
2023-03-22T10:55:18.396Z,100086.22
2023-03-22T10:57:51.549Z,100073.13
2023-03-22T11:00:18.385Z,100071.63
2023-03-22T11:02:52.419Z,100066.47
2023-03-22T11:05:24.167Z,100060.66
2023-03-22T11:07:51.115Z,100065.75
2023-03-22T11:10:21.755Z,100061.34
2023-03-22T11:13:10.146Z,100058.78
2023-03-22T11:15:41.394Z,100049.53
2023-03-22T11:18:12.998Z,100072.97
2023-03-22T11:20:41.144Z,100041.56
2023-03-22T11:23:10.416Z,100046.56
2023-03-22T11:25:37.699Z,100037.28
2023-03-22T11:28:04.181Z,100046.78
2023-03-22T11:30:30.893Z,100050.50
2023-03-22T11:33:03.222Z,100038.00
2023-03-22T11:35:30.570Z,100039.09
2023-03-22T11:37:57.292Z,100028.22
2023-03-22T11:40:28.605Z,100021.44
2023-03-22T11:43:10.301Z,100035.59
2023-03-22T11:45:41.150Z,100028.94
2023-03-22T11:48:24.777Z,100028.13
2023-03-22T11:50:56.268Z,100031.47
2023-03-22T11:53:24.482Z,100018.84
2023-03-22T11:55:51.526Z,100021.28
2023-03-22T11:58:29.095Z,100007.03
2023-03-22T12:00:58.588Z,100019.03
2023-03-22T12:03:38.934Z,100017.91
2023-03-22T12:06:13.275Z,100012.63
2023-03-22T12:08:45.284Z,100006.13
2023-03-22T12:11:16.131Z,99999.78
2023-03-22T12:13:51.881Z,100003.94
2023-03-22T12:16:24.783Z,100007.66
2023-03-22T12:19:07.732Z,99988.94
2023-03-22T12:21:34.418Z,99991.13
2023-03-22T12:24:02.292Z,99989.97
2023-03-22T12:26:29.568Z,99983.56
2023-03-22T12:29:00.511Z,99992.06
2023-03-22T12:31:37.444Z,99970.47
2023-03-22T12:34:10.007Z,99973.03
2023-03-22T12:36:43.161Z,99982.59
2023-03-22T12:39:13.815Z,99965.25
2023-03-22T12:41:42.578Z,99956.84
2023-03-22T12:44:36.179Z,99961.56
2023-03-22T12:47:24.498Z,99959.72
2023-03-22T12:49:53.213Z,99952.47
2023-03-22T12:52:37.657Z,99939.50
2023-03-22T12:55:18.200Z,99953.72
2023-03-22T12:57:51.194Z,99927.50
2023-03-22T13:00:18.102Z,99934.16
2023-03-22T13:03:10.693Z,99928.63
2023-03-22T13:05:37.797Z,99926.03
2023-03-22T13:08:05.730Z,99918.59
2023-03-22T13:10:36.865Z,99920.41
2023-03-22T13:13:21.526Z,99927.53
2023-03-22T13:16:04.180Z,99911.66
2023-03-22T13:18:37.839Z,99904.78
2023-03-22T13:21:13.995Z,99908.13
2023-03-22T13:24:04.627Z,99924.34
2023-03-22T13:26:40.192Z,99912.84
2023-03-22T13:29:32.829Z,99912.84
2023-03-22T13:32:03.765Z,99897.44
2023-03-22T13:34:31.817Z,99889.59
2023-03-22T13:36:58.504Z,99901.69
2023-03-22T13:39:28.255Z,99906.38
2023-03-22T13:42:12.812Z,99894.56
2023-03-22T13:44:40.563Z,99900.63
2023-03-22T13:47:30.670Z,99897.88
2023-03-22T13:50:22.561Z,99894.31
2023-03-22T13:52:59.578Z,99874.63
2023-03-22T13:55:38.507Z,99880.94
2023-03-22T13:58:05.926Z,99884.50
2023-03-22T14:00:33.675Z,99889.38
2023-03-22T14:03:02.280Z,99884.50
2023-03-22T14:05:30.430Z,99875.09
2023-03-22T14:07:57.595Z,99869.59
2023-03-22T14:10:46.605Z,99875.38
2023-03-22T14:13:29.980Z,99875.25
2023-03-22T14:15:58.920Z,99870.28
2023-03-22T14:18:28.017Z,99865.69
2023-03-22T14:20:57.916Z,99857.59
